Station: Trentham East (Cfa)  

  Atmospheric Gas Attenuation - ITU Rec 676-11   ----------------- dB/100km -----------------
Date Time Temp RH % AH g/m3 Dew Point Wind Direction Speed kph Gust kph Barometer mB Rainfall Since 9am 24GHz 47GHz 76GHz 122GHz 134GHz 241GHz
08/05 12:30 10.7 81 7.96 7.6 28 37 1013.1 0.2 18.4 25.7 38.7 101.6 93.7 321.6
08/05 12:20 10.2 83 7.9 7.5 24 32 1013.1 0.2 18.3 25.8 38.7 101.6 93.5 320.8
08/05 12:10 10.1 86 8.13 7.9 24 30 1013.1 0.2 18.8 26.2 39.7 104.2 96.7 332.2
08/05 12:00 10.3 86 8.24 8.1 26 32 1013.1 0.2 19.0 26.3 40.1 105.2 98.0 336.6
08/05 11:50 10.8 86 8.5 8.5 26 30 1013.1 0.2 19.5 26.6 40.9 107.4 100.9 346.9
08/05 11:40 10.4 89 8.58 8.6 24 32 1013.1 0.2 19.7 26.9 41.5 108.8 102.5 352.5
08/05 11:30 10.2 88 8.38 8.3 30 41 1013.1 0.2 19.3 26.6 40.7 106.9 100.0 343.8
08/05 11:20 9.6 92 8.43 8.4 30 37 1013.1 0.2 19.4 26.9 41.2 108.3 101.5 348.9
08/05 11:10 9.9 93 8.69 8.8 26 32 1013.1 0.2 20.0 27.2 42.2 110.8 104.8 360.2
08/05 11:00 10.1 92 8.7 8.8 20 26 1013.1 0.2 20.0 27.2 42.1 110.6 104.6 359.8
08/05 10:50 10.2 90 8.57 8.7 24 30 1013.1 0.2 19.7 26.9 41.5 109.0 102.7 353.0
08/05 10:40 9.7 92 8.48 8.5 24 30 1013.1 0.2 19.5 26.9 41.4 108.7 102.1 350.9
08/05 10:30 9.6 93 8.52 8.5 22 26 1013.1 0.2 19.6 27.0 41.6 109.3 102.8 353.3
08/05 10:20 9.5 92 8.38 8.3 26 30 1013.1 0 19.3 26.8 41.1 107.9 101.0 346.9
08/05 10:10 9.6 92 8.43 8.4 24 30 1013.1 0 19.4 26.9 41.2 108.3 101.5 348.9
08/05 10:00 9.5 92 8.38 8.2 24 33 1013.1 0 19.3 26.8 41.1 107.9 101.0 346.9
08/05 09:50 9.3 93 8.36 8.2 24 30 1013.1 0 19.3 26.8 41.1 107.9 101.0 346.8
08/05 09:40 9.2 93 8.31 8.2 22 24 1013.1 0 19.2 26.8 40.9 107.5 100.4 344.8
08/05 09:30 8.8 94 8.18 7.9 26 33 1013.1 0 18.9 26.7 40.6 106.6 99.1 340.2
08/05 09:20 8.8 93 8.1 7.8 28 33 1013.1 0 18.8 26.5 40.3 105.7 98.0 336.4
08/05 09:10 8.7 95 8.22 7.9 28 35 1013.1 0 19.0 26.8 40.8 107.1 99.8 342.6
08/05 09:00 8.8 95 8.27 8.1 22 28 1013.1 0.8 19.1 26.8 41.0 107.6 100.4 344.6
08/05 08:50 8.7 95 8.22 8 24 30 1013.1 0.8 19.0 26.8 40.8 107.1 99.8 342.6
08/05 08:40 8.6 95 8.17 7.8 30 35 1013.1 0.8 18.9 26.7 40.7 106.7 99.2 340.6
08/05 08:30 8.6 95 8.17 7.9 30 37 1013.1 0.8 18.9 26.7 40.7 106.7 99.2 340.6
08/05 08:20 8.6 95 8.17 7.9 26 35 1013.1 0.8 18.9 26.7 40.7 106.7 99.2 340.6
08/05 08:10 8.6 95 8.17 7.9 20 26 1013.1 0.8 18.9 26.7 40.7 106.7 99.2 340.6
08/05 08:00 8.5 96 8.2 7.9 20 30 1013.1 0.8 19.0 26.8 40.8 107.2 99.8 342.5
08/05 07:50 8.5 96 8.2 7.9 24 30 1013.1 0.8 19.0 26.8 40.8 107.2 99.8 342.5
08/05 07:40 8.5 96 8.2 7.9 24 28 1013.1 0.8 19.0 26.8 40.8 107.2 99.8 342.5
08/05 07:30 8.5 96 8.2 7.9 26 30 1013.1 0.6 19.0 26.8 40.8 107.2 99.8 342.5
08/05 07:20 8.4 96 8.15 7.8 26 30 1013.1 0.6 18.9 26.7 40.7 106.8 99.2 340.5
08/05 07:10 8.4 96 8.15 7.8 22 28 1013.1 0.6 18.9 26.7 40.7 106.8 99.2 340.5
08/05 07:00 8.4 96 8.15 7.8 26 32 1013.1 0.6 18.9 26.7 40.7 106.8 99.2 340.5
08/05 06:50 8.4 96 8.15 7.8 24 30 1013.1 0.6 18.9 26.7 40.7 106.8 99.2 340.5
08/05 06:40 8.4 96 8.15 7.8 22 26 1013.1 0.6 18.9 26.7 40.7 106.8 99.2 340.5
08/05 06:30 8.4 95 8.06 7.7 20 24 1013.1 0.6 18.7 26.6 40.3 105.7 97.9 336.1
08/05 06:20 8.4 96 8.15 7.8 20 26 1013.1 0.6 18.9 26.7 40.7 106.8 99.2 340.5
08/05 06:10 8.4 95 8.06 7.7 22 26 1013.1 0.6 18.7 26.6 40.3 105.7 97.9 336.1
08/05 06:00 8.4 95 8.06 7.7 19 22 1013.1 0.6 18.7 26.6 40.3 105.7 97.9 336.1
08/05 05:50 8.4 95 8.06 7.7 19 24 1013.1 0.6 18.7 26.6 40.3 105.7 97.9 336.1
08/05 05:40 8.4 95 8.06 7.7 22 26 1013.1 0.4 18.7 26.6 40.3 105.7 97.9 336.1
08/05 05:30 8.4 95 8.06 7.7 22 26 1013.1 0.4 18.7 26.6 40.3 105.7 97.9 336.1
08/05 05:20 8.4 95 8.06 7.7 22 26 1013.1 0.4 18.7 26.6 40.3 105.7 97.9 336.1
08/05 05:10 8.4 95 8.06 7.6 20 26 1013.1 0.4 18.7 26.6 40.3 105.7 97.9 336.1
08/05 05:00 8.4 95 8.06 7.6 17 20 1013.1 0.4 18.7 26.6 40.3 105.7 97.9 336.1
08/05 04:50 8.3 95 8.01 7.5 17 22 1013.1 0.4 18.6 26.5 40.1 105.3 97.4 334.1
08/05 04:40 8.4 94 7.98 7.5 20 26 1013.1 0.4 18.5 26.5 40.0 104.8 96.8 332.2
08/05 04:30 8.4 93 7.89 7.4 20 30 1013.1 0.4 18.3 26.3 39.6 103.8 95.6 327.9
08/05 04:20 8.4 93 7.89 7.3 24 30 1013.1 0.4 18.3 26.3 39.6 103.8 95.6 327.9
08/05 04:10 8.3 94 7.93 7.4 20 37 1013.1 0.4 18.4 26.4 39.8 104.4 96.3 330.2
08/05 04:00 8.4 93 7.89 7.4 20 28 1013.1 0.4 18.3 26.3 39.6 103.8 95.6 327.9
08/05 03:50 8.3 93 7.84 7.3 19 22 1013.1 0.4 18.2 26.2 39.4 103.4 95.0 325.9
08/05 03:40 8.3 93 7.84 7.3 19 22 1013.1 0.4 18.2 26.2 39.4 103.4 95.0 325.9
08/05 03:30 8.3 93 7.84 7.3 20 28 1013.1 0.2 18.2 26.2 39.4 103.4 95.0 325.9
08/05 03:20 8.3 93 7.84 7.3 20 22 1013.1 0.2 18.2 26.2 39.4 103.4 95.0 325.9
08/05 03:10 8.2 94 7.88 7.3 19 22 1013.1 0.2 18.3 26.3 39.6 104.0 95.7 328.2
08/05 03:00 8.1 94 7.82 7.2 17 20 1013.1 0.2 18.2 26.3 39.4 103.4 95.0 325.7
08/05 02:50 8.1 94 7.82 7.2 17 20 1013.1 0.2 18.2 26.3 39.4 103.4 95.0 325.7
08/05 02:40 8 94 7.77 7.1 15 17 1013.1 0.2 18.1 26.2 39.3 103.0 94.4 323.7
08/05 02:30 8 94 7.77 7.1 19 26 1013.1 0.2 18.1 26.2 39.3 103.0 94.4 323.7
08/05 02:20 7.9 94 7.72 7 15 17 1013.1 0.2 18.0 26.2 39.1 102.6 93.8 321.7
08/05 02:10 7.9 94 7.72 7 19 24 1013.1 0.2 18.0 26.2 39.1 102.6 93.8 321.7
08/05 02:00 7.9 93 7.64 6.9 19 28 1013.1 0.2 17.8 26.0 38.8 101.7 92.7 317.8
08/05 01:50 7.8 94 7.67 6.9 19 26 1013.1 0.2 17.9 26.1 39.0 102.2 93.3 319.7
08/05 01:40 7.8 93 7.59 6.8 19 26 1013.1 0.2 17.7 26.0 38.6 101.3 92.2 315.8
08/05 01:30 7.7 93 7.54 6.7 19 26 1013.1 0.2 17.6 25.9 38.5 100.8 91.6 313.8
08/05 01:20 7.7 93 7.54 6.7 20 24 1013.1 0.2 17.6 25.9 38.5 100.8 91.6 313.8
08/05 01:10 7.7 93 7.54 6.6 20 24 1013.1 0.2 17.6 25.9 38.5 100.8 91.6 313.8
08/05 01:00 7.7 93 7.54 6.7 22 30 1013.1 0.2 17.6 25.9 38.5 100.8 91.6 313.8
08/05 00:50 7.5 95 7.61 6.7 22 28 1013.1 0.2 17.8 26.1 38.9 101.9 92.8 318.0
08/05 00:40 7.4 95 7.56 6.7 20 24 1013.1 0.2 17.7 26.0 38.7 101.4 92.2 316.0
08/05 00:30 7.3 95 7.51 6.6 20 26 1013.1 0.2 17.5 26.0 38.5 101.0 91.6 314.0
08/05 00:20 7.2 95 7.46 6.4 24 26 1013.1 0.2 17.4 25.9 38.4 100.6 91.1 311.9
08/05 00:10 7.2 94 7.38 6.3 24 30 1013.1 0.2 17.3 25.8 38.0 99.7 90.0 308.1
08/05 00:00 7.1 95 7.41 6.3 22 28 1013.1 0.2 17.3 25.9 38.2 100.1 90.5 309.9
07/05 23:50 7 95 7.36 6.2 24 28 1013.1 0.2 17.2 25.8 38.0 99.7 89.9 307.9
07/05 23:40 6.9 94 7.24 6 20 24 1013.1 0.2 17.0 25.6 37.6 98.5 88.4 302.5
07/05 23:30 6.8 95 7.27 6 22 28 1013.1 0.2 17.1 25.7 37.8 99.0 88.9 304.3
07/05 23:20 6.7 95 7.22 5.9 20 24 1013.1 0.2 16.9 25.7 37.6 98.5 88.3 302.3
07/05 23:10 6.7 94 7.15 5.8 20 22 1013.1 0.2 16.8 25.6 37.3 97.7 87.4 298.9
07/05 23:00 6.8 93 7.12 5.7 24 32 1013.1 0.2 16.7 25.5 37.1 97.3 86.8 297.1
07/05 22:50 6.8 93 7.12 5.7 26 33 1013.1 0.2 16.7 25.5 37.1 97.3 86.8 297.1
07/05 22:40 6.7 93 7.07 5.7 24 28 1013.1 0.2 16.6 25.4 37.0 96.8 86.3 295.0
07/05 22:30 6.6 94 7.1 5.7 24 33 1013.1 0.2 16.7 25.5 37.1 97.3 86.8 296.9
07/05 22:20 6.6 93 7.02 5.6 26 32 1013.1 0.2 16.5 25.4 36.8 96.4 85.7 293.0
07/05 22:10 6.6 92 6.95 5.4 26 32 1013.1 0.2 16.4 25.2 36.5 95.6 84.7 289.7
07/05 22:00 6.4 93 6.93 5.3 20 30 1013.1 0.2 16.3 25.3 36.5 95.7 84.7 289.4
07/05 21:50 6.4 92 6.86 5.2 17 20 1013.1 0.2 16.2 25.2 36.2 94.9 83.7 286.1
07/05 21:40 6.3 92 6.81 5.1 20 26 1013.1 0.2 16.1 25.1 36.1 94.5 83.1 284.1
07/05 21:30 6.2 92 6.77 5 17 20 1013.1 0.2 16.0 25.1 36.0 94.1 82.7 282.5
07/05 21:20 6.1 92 6.73 4.9 17 20 1013.1 0.2 15.9 25.0 35.8 93.8 82.3 280.9
07/05 21:10 6 93 6.75 4.9 17 22 1013.1 0.2 16.0 25.1 36.0 94.1 82.6 282.3
07/05 21:00 5.9 93 6.71 4.8 19 22 1013.1 0.2 15.9 25.0 35.8 93.8 82.2 280.7
07/05 20:50 5.9 93 6.71 4.8 19 22 1013.1 0.2 15.9 25.0 35.8 93.8 82.2 280.7
07/05 20:40 5.9 92 6.64 4.7 17 22 1013.1 0.2 15.7 24.9 35.6 93.1 81.3 277.4
07/05 20:30 5.9 92 6.64 4.7 19 22 1013.1 0.2 15.7 24.9 35.6 93.1 81.3 277.4
07/05 20:20 5.8 92 6.59 4.6 20 28 1013.1 0.2 15.6 24.9 35.4 92.6 80.7 275.3
07/05 20:10 5.8 91 6.52 4.4 19 28 1013.1 0.2 15.5 24.8 35.1 91.8 79.7 272.0
07/05 20:00 5.8 90 6.45 4.3 19 24 1013.1 0.2 15.3 24.6 34.8 91.1 78.8 268.6

Last Refresh: 08-May-2026 12:10:18

Bureau of Meteorology